Finly, Indiana
Current Conditions -  °F | °C
As of 2:53 PM on Tuesday 21 Oct 2014 (Local Time) from KGEZ Reporting Station
Overcast Overcast  
Wind Chill: 57°   Ceiling: 5500
Heat Index: 57°   Visibility: 10mi
Dew Point: 40°   Wind: 14mph
Humidity: 53%   Direction: 330°NNW
Pressure: 30.06"   Gusts: NA
Location:  39.71°N, 85.82°W
Report Text: KGEZ 211853Z AUTO 33012KT 10SM FEW040 OVC055 14/04 A3006 RMK AO2 SLP181 T01390044
Loading
Personal Weather Stations






























Interactive Weather Map
Tropical Storm Tracking
New forecast layout! Learn more

10-Day Weather Forecast

Advertisements
Track Severe Weather on mobile